createdAt,value
2018-08-17T00:02:05.691Z,4.10
2018-08-17T00:04:40.977Z,4.73
2018-08-17T00:07:15.871Z,4.00
2018-08-17T00:09:50.745Z,3.80
2018-08-17T00:12:25.650Z,3.67
2018-08-17T00:15:00.288Z,4.07
2018-08-17T00:17:35.323Z,4.00
2018-08-17T00:20:10.145Z,3.50
2018-08-17T00:22:44.826Z,4.30
2018-08-17T00:25:19.881Z,3.70
2018-08-17T00:27:54.721Z,3.60
2018-08-17T00:30:29.506Z,3.77
2018-08-17T00:33:04.731Z,3.87
2018-08-17T00:35:39.583Z,4.30
2018-08-17T00:38:14.254Z,3.83
2018-08-17T00:40:48.933Z,4.40
2018-08-17T00:43:23.942Z,4.03
2018-08-17T00:45:59.009Z,3.70
2018-08-17T00:48:34.135Z,4.33
2018-08-17T00:51:09.509Z,5.23
2018-08-17T00:53:44.602Z,3.77
2018-08-17T00:56:19.612Z,4.13
2018-08-17T00:58:54.643Z,6.50
2018-08-17T01:01:29.740Z,4.27
2018-08-17T01:04:04.872Z,3.67
2018-08-17T01:06:40.042Z,4.17
2018-08-17T01:09:20.652Z,3.63
2018-08-17T01:11:55.476Z,3.60
2018-08-17T01:14:30.340Z,3.20
2018-08-17T01:17:05.688Z,3.80
2018-08-17T01:19:40.449Z,3.90
2018-08-17T01:22:15.245Z,4.00
2018-08-17T01:24:50.013Z,3.13
2018-08-17T01:27:24.652Z,4.37
2018-08-17T01:29:59.623Z,3.80
2018-08-17T01:32:34.680Z,3.80
2018-08-17T01:35:09.444Z,4.13
2018-08-17T01:37:44.456Z,3.50
2018-08-17T01:40:19.241Z,3.90
2018-08-17T01:42:54.137Z,3.63
2018-08-17T01:45:28.970Z,4.63
2018-08-17T01:48:03.714Z,3.87
2018-08-17T01:50:38.713Z,3.73
2018-08-17T01:53:13.541Z,3.30
2018-08-17T01:55:48.216Z,4.33
2018-08-17T01:58:23.189Z,3.90
2018-08-17T02:00:58.089Z,3.60
2018-08-17T02:03:27.430Z,3.60
2018-08-17T02:05:56.743Z,3.70
2018-08-17T02:08:26.085Z,3.33
2018-08-17T02:10:55.644Z,3.03
2018-08-17T02:13:25.593Z,2.83
2018-08-17T02:15:54.921Z,4.30
2018-08-17T02:18:24.066Z,3.27
2018-08-17T02:20:53.148Z,3.70
2018-08-17T02:23:24.357Z,2.90
2018-08-17T02:25:53.433Z,3.90
2018-08-17T02:28:22.735Z,3.40
2018-08-17T02:30:52.291Z,3.37
2018-08-17T02:33:21.856Z,3.77
2018-08-17T02:35:51.169Z,3.40
2018-08-17T02:38:20.246Z,3.23
2018-08-17T02:40:49.576Z,3.40
2018-08-17T02:43:18.885Z,3.00
2018-08-17T02:45:48.205Z,3.33
2018-08-17T02:48:17.773Z,3.23
2018-08-17T02:50:47.072Z,3.75
2018-08-17T02:53:16.424Z,3.17
2018-08-17T02:55:45.727Z,2.70
2018-08-17T02:58:14.824Z,3.47
2018-08-17T03:00:44.174Z,3.97
2018-08-17T03:03:13.489Z,2.80
2018-08-17T03:05:42.600Z,2.80
2018-08-17T03:08:11.681Z,3.00
2018-08-17T03:10:40.788Z,3.63
2018-08-17T03:13:10.115Z,3.30
2018-08-17T03:15:39.665Z,3.40
2018-08-17T03:18:09.200Z,3.90
2018-08-17T03:20:38.739Z,3.37
2018-08-17T03:23:08.276Z,3.50
2018-08-17T03:25:37.827Z,2.60
2018-08-17T03:28:07.649Z,3.20
2018-08-17T03:30:36.964Z,3.10
2018-08-17T03:33:06.280Z,3.33
2018-08-17T03:35:35.840Z,3.10
2018-08-17T03:38:05.607Z,3.00
2018-08-17T03:40:35.331Z,3.60
2018-08-17T03:43:04.670Z,2.80
2018-08-17T03:45:33.976Z,3.60
2018-08-17T03:48:03.317Z,2.70
2018-08-17T03:50:32.609Z,2.83
2018-08-17T03:53:01.717Z,3.17
2018-08-17T03:55:31.100Z,3.30
2018-08-17T03:58:00.652Z,3.07
2018-08-17T04:00:30.195Z,2.57
2018-08-17T04:02:59.756Z,2.50
2018-08-17T04:05:29.287Z,2.40
2018-08-17T04:07:58.604Z,2.97
2018-08-17T04:10:27.926Z,2.67
2018-08-17T04:12:57.261Z,3.43
2018-08-17T04:15:26.645Z,2.67
2018-08-17T04:17:55.931Z,3.13
2018-08-17T04:20:25.243Z,2.67
2018-08-17T04:22:54.797Z,2.83
2018-08-17T04:25:24.231Z,3.07
2018-08-17T04:27:53.575Z,2.83
2018-08-17T04:30:22.879Z,2.90
2018-08-17T04:32:52.218Z,2.83
2018-08-17T04:35:21.831Z,2.67
2018-08-17T04:37:51.106Z,3.00
2018-08-17T04:40:20.492Z,3.10
2018-08-17T04:42:49.799Z,3.30
2018-08-17T04:45:18.905Z,3.00
2018-08-17T04:47:48.240Z,3.00
2018-08-17T04:50:17.565Z,2.80
2018-08-17T04:52:46.905Z,3.20
2018-08-17T04:55:16.445Z,3.43
2018-08-17T04:57:45.746Z,2.80
2018-08-17T05:00:15.080Z,2.60
2018-08-17T05:02:44.632Z,2.90
2018-08-17T05:05:14.153Z,3.10
2018-08-17T05:07:43.712Z,3.10
2018-08-17T05:10:13.275Z,3.23
2018-08-17T05:12:42.567Z,2.92
2018-08-17T05:15:11.665Z,2.90
2018-08-17T05:17:40.754Z,3.03
2018-08-17T05:20:09.842Z,2.60
2018-08-17T05:22:38.933Z,2.60
2018-08-17T05:25:08.300Z,2.80
2018-08-17T05:27:38.404Z,2.77
2018-08-17T05:30:08.478Z,2.70
2018-08-17T05:32:38.532Z,2.70
2018-08-17T05:35:08.752Z,2.60
2018-08-17T05:37:38.684Z,2.73
2018-08-17T05:40:09.877Z,2.42
2018-08-17T05:42:39.427Z,2.63
2018-08-17T05:45:09.980Z,2.57
2018-08-17T05:47:39.516Z,2.50
2018-08-17T05:50:09.473Z,2.50
2018-08-17T05:52:39.427Z,3.37
2018-08-17T05:55:09.074Z,3.12
2018-08-17T05:57:38.396Z,2.43
2018-08-17T06:00:09.735Z,3.77
2018-08-17T06:02:39.468Z,3.40
2018-08-17T06:05:09.431Z,2.80
2018-08-17T06:07:39.335Z,3.60
2018-08-17T06:10:10.126Z,6.73
2018-08-17T06:12:39.434Z,4.33
2018-08-17T06:15:08.863Z,11.00
2018-08-17T06:17:38.689Z,12.90
2018-08-17T06:20:08.781Z,4.90
2018-08-17T06:22:38.300Z,4.07
2018-08-17T06:25:08.316Z,3.10
2018-08-17T06:27:37.911Z,4.00
2018-08-17T06:30:09.664Z,2.87
2018-08-17T06:32:39.910Z,2.67
2018-08-17T06:35:10.838Z,3.20
2018-08-17T06:37:41.555Z,5.63
2018-08-17T06:40:10.915Z,4.07
2018-08-17T06:42:40.291Z,3.13
2018-08-17T06:45:12.220Z,4.00
2018-08-17T06:47:41.548Z,2.87
2018-08-17T06:50:11.232Z,4.10
2018-08-17T06:52:41.497Z,3.93
2018-08-17T06:55:11.756Z,3.53
2018-08-17T06:57:41.327Z,5.90
2018-08-17T07:00:13.935Z,3.70
2018-08-17T07:02:44.566Z,4.93
2018-08-17T07:05:14.048Z,7.20
2018-08-17T07:07:43.597Z,6.70
2018-08-17T07:10:14.159Z,8.80
2018-08-17T07:12:44.056Z,4.07
2018-08-17T07:15:13.628Z,5.20
2018-08-17T07:17:42.939Z,9.27
2018-08-17T07:20:13.184Z,4.33
2018-08-17T07:22:42.618Z,8.90
2018-08-17T07:25:11.957Z,9.30
2018-08-17T07:27:42.068Z,10.90
2018-08-17T07:30:11.940Z,8.00
2018-08-17T07:32:41.848Z,4.43
2018-08-17T07:35:12.040Z,9.00
2018-08-17T07:37:42.447Z,7.65
2018-08-17T07:40:11.997Z,3.77
2018-08-17T07:42:42.009Z,5.47
2018-08-17T07:45:11.350Z,5.17
2018-08-17T07:47:40.983Z,5.60
2018-08-17T07:50:15.106Z,3.37
2018-08-17T07:52:44.718Z,4.83
2018-08-17T07:55:14.275Z,2.73
2018-08-17T07:57:43.618Z,7.97
2018-08-17T08:00:13.471Z,4.10
2018-08-17T08:02:42.787Z,5.63
2018-08-17T08:05:12.937Z,4.27
2018-08-17T08:07:43.025Z,5.87
2018-08-17T08:10:12.621Z,4.70
2018-08-17T08:12:41.956Z,2.57
2018-08-17T08:15:11.264Z,4.13
2018-08-17T08:17:40.670Z,2.30
2018-08-17T08:20:21.500Z,4.20
2018-08-17T08:22:55.299Z,1.87
2018-08-17T08:25:24.652Z,2.70
2018-08-17T08:27:53.969Z,2.00
2018-08-17T08:30:23.057Z,9.13
2018-08-17T08:32:52.167Z,2.30
2018-08-17T08:35:21.257Z,2.07
2018-08-17T08:37:50.579Z,2.10
2018-08-17T08:40:19.909Z,3.08
2018-08-17T08:42:49.013Z,3.00
2018-08-17T08:45:18.133Z,2.90
2018-08-17T08:47:47.469Z,6.23
2018-08-17T08:50:16.912Z,1.73
2018-08-17T08:52:46.010Z,1.60
2018-08-17T08:55:15.362Z,2.37
2018-08-17T08:57:44.924Z,8.07
2018-08-17T09:00:14.488Z,2.17
2018-08-17T09:02:44.053Z,2.03
2018-08-17T09:05:13.783Z,6.87
2018-08-17T09:07:42.911Z,4.17
2018-08-17T09:10:12.002Z,8.53
2018-08-17T09:12:41.372Z,4.70
2018-08-17T09:15:12.036Z,8.40
2018-08-17T09:17:42.406Z,3.00
2018-08-17T09:20:14.054Z,3.37
2018-08-17T09:22:43.645Z,2.90
2018-08-17T09:25:13.550Z,3.63
2018-08-17T09:27:42.990Z,2.90
2018-08-17T09:30:13.700Z,2.00
2018-08-17T09:32:43.111Z,2.20
2018-08-17T09:35:13.028Z,3.63
2018-08-17T09:37:42.352Z,2.60
2018-08-17T09:40:12.252Z,2.17
2018-08-17T09:42:41.339Z,3.67
2018-08-17T09:45:12.259Z,3.80
2018-08-17T09:47:41.862Z,5.33
2018-08-17T09:50:12.994Z,2.10
2018-08-17T09:52:42.545Z,2.73
2018-08-17T09:55:11.948Z,2.27
2018-08-17T09:57:41.382Z,3.10
2018-08-17T10:00:11.245Z,2.43
2018-08-17T10:02:46.027Z,5.20
2018-08-17T10:05:20.844Z,2.43
2018-08-17T10:07:55.957Z,10.00
2018-08-17T10:10:25.512Z,2.65
2018-08-17T10:12:54.846Z,3.23
2018-08-17T10:15:24.417Z,6.95
2018-08-17T10:17:53.948Z,2.00
2018-08-17T10:20:23.781Z,5.35
2018-08-17T10:22:53.105Z,2.47
2018-08-17T10:25:24.119Z,4.37
2018-08-17T10:27:54.752Z,14.40
2018-08-17T10:30:24.070Z,22.53
2018-08-17T10:32:54.158Z,18.20
2018-08-17T10:35:29.015Z,19.30
2018-08-17T10:37:59.650Z,12.20
2018-08-17T10:40:29.427Z,17.53
2018-08-17T10:43:00.298Z,25.07
2018-08-17T10:45:30.005Z,20.43
2018-08-17T10:47:59.306Z,24.87
2018-08-17T10:50:29.656Z,14.40
2018-08-17T10:53:00.963Z,13.58
2018-08-17T10:55:39.851Z,17.40
2018-08-17T10:58:11.142Z,15.87
2018-08-17T11:03:16.892Z,15.60
2018-08-17T11:05:46.210Z,17.53
2018-08-17T11:08:15.335Z,20.00
2018-08-17T11:10:44.676Z,17.83
2018-08-17T11:13:14.220Z,11.00
2018-08-17T11:15:43.821Z,9.73
2018-08-17T11:18:13.398Z,18.73
2018-08-17T11:20:42.756Z,10.80
2018-08-17T11:23:12.108Z,12.23
2018-08-17T11:25:41.428Z,19.93
2018-08-17T11:28:10.768Z,9.67
2018-08-17T11:30:40.348Z,17.97
2018-08-17T11:33:10.498Z,11.67
2018-08-17T11:35:39.792Z,10.70
2018-08-17T11:38:14.350Z,12.23
2018-08-17T11:40:43.677Z,15.33
2018-08-17T11:43:13.006Z,12.77
2018-08-17T11:45:42.939Z,11.03
2018-08-17T11:48:21.923Z,8.57
2018-08-17T11:50:51.360Z,6.77
2018-08-17T11:53:21.188Z,10.60
2018-08-17T11:55:51.398Z,9.30
2018-08-17T11:58:21.230Z,10.83
2018-08-17T12:00:50.578Z,8.17
2018-08-17T12:03:19.956Z,6.83
2018-08-17T12:05:49.051Z,6.63
2018-08-17T12:08:18.447Z,6.03
2018-08-17T12:10:52.108Z,12.23
2018-08-17T12:13:21.543Z,4.07
2018-08-17T12:15:55.339Z,14.67
2018-08-17T12:18:25.296Z,4.77
2018-08-17T12:20:55.345Z,4.50
2018-08-17T12:23:24.718Z,4.07
2018-08-17T12:25:55.489Z,7.43
2018-08-17T12:28:25.739Z,8.20
2018-08-17T12:30:55.104Z,4.80
2018-08-17T12:33:24.418Z,8.27
2018-08-17T12:35:53.791Z,6.10
2018-08-17T12:38:23.319Z,4.17
2018-08-17T12:40:57.127Z,3.72
2018-08-17T12:43:29.957Z,3.77
2018-08-17T12:45:59.306Z,6.33
2018-08-17T12:48:28.677Z,7.37
2018-08-17T12:51:03.020Z,9.83
2018-08-17T12:53:32.402Z,3.90
2018-08-17T12:56:01.691Z,5.07
2018-08-17T12:58:31.048Z,6.15
2018-08-17T13:01:00.834Z,7.93
2018-08-17T13:03:30.259Z,3.52
2018-08-17T13:05:59.347Z,4.90
2018-08-17T13:08:28.440Z,4.17
2018-08-17T13:10:58.484Z,4.53
2018-08-17T13:13:27.975Z,6.63
2018-08-17T13:16:02.722Z,3.17
2018-08-17T13:18:33.675Z,2.80
2018-08-17T13:21:02.984Z,10.30
2018-08-17T13:23:32.368Z,9.50
2018-08-17T13:26:01.660Z,9.07
2018-08-17T13:28:31.051Z,5.00
2018-08-17T13:33:48.456Z,8.40
2018-08-17T13:36:18.005Z,5.33
2018-08-17T13:38:47.572Z,6.50
2018-08-17T13:41:16.893Z,3.17
2018-08-17T13:43:46.709Z,6.07
2018-08-17T13:46:16.724Z,11.93
2018-08-17T13:48:46.111Z,8.28
2018-08-17T13:51:15.927Z,5.33
2018-08-17T13:53:45.324Z,6.23
2018-08-17T13:56:14.705Z,6.63
2018-08-17T13:58:44.045Z,6.17
2018-08-17T14:01:13.473Z,8.43
2018-08-17T14:03:43.089Z,16.80
2018-08-17T14:06:12.404Z,3.47
2018-08-17T14:08:41.555Z,8.23
2018-08-17T14:11:11.143Z,5.77
2018-08-17T14:13:40.263Z,10.40
2018-08-17T14:16:09.384Z,7.30
2018-08-17T14:18:38.504Z,5.35
2018-08-17T14:21:07.621Z,7.13
2018-08-17T14:23:36.715Z,7.03
2018-08-17T14:26:05.822Z,8.10
2018-08-17T14:28:35.013Z,5.77
2018-08-17T14:31:04.364Z,4.60
2018-08-17T14:33:33.904Z,8.33
2018-08-17T14:36:03.220Z,8.47
2018-08-17T14:38:36.027Z,6.90
2018-08-17T14:41:06.062Z,5.07
2018-08-17T14:43:35.186Z,4.97
2018-08-17T14:46:04.509Z,5.23
2018-08-17T14:48:33.818Z,12.97
2018-08-17T14:51:03.159Z,9.83
2018-08-17T14:53:32.710Z,7.67
2018-08-17T14:56:02.235Z,9.98
2018-08-17T14:58:31.568Z,3.90
2018-08-17T15:01:00.990Z,6.70
2018-08-17T15:03:30.127Z,7.63
2018-08-17T15:05:59.228Z,6.30
2018-08-17T15:08:28.585Z,3.23
2018-08-17T15:10:58.026Z,3.20
2018-08-17T15:13:27.273Z,7.63
2018-08-17T15:15:57.249Z,5.53
2018-08-17T15:18:27.225Z,5.13
2018-08-17T15:20:56.564Z,3.97
2018-08-17T15:23:26.993Z,3.60
2018-08-17T15:25:56.923Z,6.87
2018-08-17T15:28:26.050Z,3.10
2018-08-17T15:30:55.404Z,6.30
2018-08-17T15:33:24.729Z,11.10
2018-08-17T15:35:54.052Z,4.30
2018-08-17T15:38:23.605Z,5.47
2018-08-17T15:40:53.190Z,8.83
2018-08-17T15:43:22.708Z,2.37
2018-08-17T15:45:52.241Z,2.93
2018-08-17T15:48:21.771Z,5.63
2018-08-17T15:50:54.719Z,7.53
2018-08-17T15:53:24.076Z,5.07
2018-08-17T15:55:53.454Z,8.30
2018-08-17T15:58:22.769Z,2.73
2018-08-17T16:00:52.131Z,5.17
2018-08-17T16:03:21.838Z,4.73
2018-08-17T16:05:51.395Z,6.43
2018-08-17T16:08:20.984Z,5.13
2018-08-17T16:10:50.235Z,4.80
2018-08-17T16:13:19.569Z,8.57
2018-08-17T16:15:48.851Z,3.83
2018-08-17T16:18:18.188Z,5.17
2018-08-17T16:20:47.735Z,2.47
2018-08-17T16:23:17.050Z,3.93
2018-08-17T16:25:46.392Z,2.27
2018-08-17T16:28:15.944Z,3.70
2018-08-17T16:30:45.256Z,9.73
2018-08-17T16:33:14.614Z,4.42
2018-08-17T16:35:44.152Z,3.80
2018-08-17T16:38:13.678Z,4.87
2018-08-17T16:40:48.145Z,3.92
2018-08-17T16:43:20.834Z,19.27
2018-08-17T16:45:49.929Z,10.93
2018-08-17T16:48:19.265Z,7.03
2018-08-17T16:50:48.828Z,10.53
2018-08-17T16:53:18.584Z,5.33
2018-08-17T16:55:47.921Z,16.42
2018-08-17T16:58:17.488Z,9.67
2018-08-17T17:00:46.820Z,5.80
2018-08-17T17:03:16.453Z,3.37
2018-08-17T17:05:46.008Z,6.80
2018-08-17T17:08:15.545Z,5.47
2018-08-17T17:10:44.862Z,12.20
2018-08-17T17:13:14.182Z,5.60
2018-08-17T17:15:43.736Z,2.30
2018-08-17T17:18:13.282Z,6.90
2018-08-17T17:20:42.875Z,14.37
2018-08-17T17:23:12.691Z,4.13
2018-08-17T17:25:41.984Z,9.00
2018-08-17T17:28:16.905Z,4.27
2018-08-17T17:30:58.776Z,7.00
2018-08-17T17:33:33.682Z,3.07
2018-08-17T17:36:08.733Z,7.63
2018-08-17T17:39:34.895Z,6.20
2018-08-17T17:42:10.731Z,2.10
2018-08-17T17:44:45.985Z,3.50
2018-08-17T17:47:25.274Z,4.73
2018-08-17T17:50:00.938Z,3.87
2018-08-17T17:52:36.434Z,10.90
2018-08-17T17:55:11.362Z,6.30
2018-08-17T17:57:49.657Z,4.10
2018-08-17T18:00:24.684Z,8.23
2018-08-17T18:05:48.939Z,5.07
2018-08-17T18:08:24.083Z,9.40
2018-08-17T18:10:59.134Z,7.03
2018-08-17T18:13:34.030Z,8.50
2018-08-17T18:16:08.922Z,14.00
2018-08-17T18:18:43.973Z,4.30
2018-08-17T18:21:19.087Z,5.10
2018-08-17T18:23:57.970Z,9.63
2018-08-17T18:26:32.897Z,7.73
2018-08-17T18:29:07.816Z,6.33
2018-08-17T18:31:43.356Z,5.90
2018-08-17T18:34:18.528Z,11.27
2018-08-17T18:36:53.584Z,6.87
2018-08-17T18:39:28.768Z,13.13
2018-08-17T18:42:03.614Z,3.70
2018-08-17T18:44:38.398Z,8.27
2018-08-17T18:47:13.245Z,7.30
2018-08-17T18:49:48.290Z,4.03
2018-08-17T18:52:23.363Z,9.13
2018-08-17T18:54:58.469Z,3.13
2018-08-17T18:57:33.283Z,2.77
2018-08-17T19:00:10.311Z,5.43
2018-08-17T19:02:45.194Z,7.63
2018-08-17T19:05:19.839Z,3.03
2018-08-17T19:07:54.770Z,6.73
2018-08-17T19:10:29.964Z,4.83
2018-08-17T19:13:04.852Z,5.50
2018-08-17T19:15:45.576Z,3.27
2018-08-17T19:18:20.326Z,5.93
2018-08-17T19:20:54.956Z,6.33
2018-08-17T19:23:29.968Z,4.37
2018-08-17T19:26:04.891Z,5.23
2018-08-17T19:28:39.990Z,12.30
2018-08-17T19:31:14.833Z,5.07
2018-08-17T19:33:49.571Z,7.00
2018-08-17T19:36:24.608Z,3.77
2018-08-17T19:38:59.479Z,4.47
2018-08-17T19:41:34.262Z,4.70
2018-08-17T19:44:09.952Z,4.37
2018-08-17T19:46:49.390Z,11.20
2018-08-17T19:49:24.458Z,5.30
2018-08-17T19:52:00.188Z,2.40
2018-08-17T19:54:35.267Z,4.67
2018-08-17T19:57:10.138Z,5.67
2018-08-17T19:59:45.083Z,14.73
2018-08-17T20:02:20.219Z,3.77
2018-08-17T20:04:55.033Z,4.83
2018-08-17T20:07:31.140Z,5.77
2018-08-17T20:10:06.970Z,20.17
2018-08-17T20:12:42.819Z,9.27
2018-08-17T20:15:17.954Z,6.10
2018-08-17T20:17:53.252Z,8.90
2018-08-17T20:20:28.200Z,1.43
2018-08-17T20:23:03.158Z,8.97
2018-08-17T20:25:38.335Z,3.93
2018-08-17T20:28:13.408Z,3.17
2018-08-17T20:30:48.252Z,2.73
2018-08-17T20:33:28.154Z,3.83
2018-08-17T20:36:03.353Z,4.33
2018-08-17T20:38:38.654Z,3.87
2018-08-17T20:41:13.512Z,3.27
2018-08-17T20:43:48.395Z,3.97
2018-08-17T20:46:23.046Z,5.70
2018-08-17T20:48:58.114Z,4.23
2018-08-17T20:51:34.508Z,5.10
2018-08-17T20:54:09.662Z,5.53
2018-08-17T20:56:44.904Z,3.13
2018-08-17T20:59:20.060Z,2.60
2018-08-17T21:01:55.221Z,6.30
2018-08-17T21:04:30.029Z,1.67
2018-08-17T21:07:07.869Z,3.23
2018-08-17T21:09:44.716Z,3.00
2018-08-17T21:12:23.655Z,10.53
2018-08-17T21:15:21.377Z,10.90
2018-08-17T21:20:55.246Z,6.73
2018-08-17T21:23:30.114Z,3.00
2018-08-17T21:26:05.091Z,3.37
2018-08-17T21:28:40.276Z,2.30
2018-08-17T21:31:16.578Z,3.13
2018-08-17T21:33:51.564Z,9.23
2018-08-17T21:36:26.696Z,1.43
2018-08-17T21:39:13.311Z,1.70
2018-08-17T21:41:49.105Z,2.10
2018-08-17T21:44:24.139Z,14.33
2018-08-17T21:47:04.206Z,2.80
2018-08-17T21:49:39.309Z,1.43
2018-08-17T21:52:19.803Z,8.53
2018-08-17T21:54:54.838Z,1.90
2018-08-17T21:57:29.784Z,5.23
2018-08-17T22:00:08.775Z,3.47
2018-08-17T22:02:43.764Z,2.07
2018-08-17T22:05:27.041Z,3.10
2018-08-17T22:08:02.005Z,1.63
2018-08-17T22:10:36.822Z,0.83
2018-08-17T22:13:17.166Z,1.97
2018-08-17T22:15:52.164Z,1.03
2018-08-17T22:18:27.317Z,1.00
2018-08-17T22:21:02.274Z,2.20
2018-08-17T22:23:37.146Z,3.10
2018-08-17T22:26:11.982Z,2.17
2018-08-17T22:28:47.094Z,2.33
2018-08-17T22:31:32.839Z,2.07
2018-08-17T22:34:07.870Z,3.73
2018-08-17T22:36:42.884Z,1.13
2018-08-17T22:39:17.996Z,3.30
2018-08-17T22:41:53.413Z,2.90
2018-08-17T22:44:28.410Z,2.50
2018-08-17T22:47:25.277Z,2.27
2018-08-17T22:50:00.987Z,1.07
2018-08-17T22:52:35.792Z,1.17
2018-08-17T22:55:10.486Z,2.30
2018-08-17T22:57:45.561Z,1.63
2018-08-17T23:00:23.474Z,1.47
2018-08-17T23:03:00.089Z,1.10
2018-08-17T23:05:36.436Z,0.90
2018-08-17T23:08:11.509Z,1.63
2018-08-17T23:10:46.666Z,0.80
2018-08-17T23:13:21.789Z,3.70
2018-08-17T23:15:57.643Z,1.17
2018-08-17T23:18:32.446Z,1.00
2018-08-17T23:21:07.380Z,1.20
2018-08-17T23:23:42.481Z,1.60
2018-08-17T23:26:17.532Z,2.87
2018-08-17T23:28:52.684Z,1.50
2018-08-17T23:31:27.621Z,1.20
2018-08-17T23:34:02.390Z,0.80
2018-08-17T23:36:37.468Z,0.90
2018-08-17T23:39:12.365Z,0.80
2018-08-17T23:41:47.717Z,1.30
2018-08-17T23:44:22.678Z,1.43
2018-08-17T23:46:57.748Z,0.73
2018-08-17T23:49:32.479Z,1.80
2018-08-17T23:52:07.354Z,4.70
2018-08-17T23:54:42.209Z,1.03
2018-08-17T23:57:17.383Z,2.20
2018-08-17T23:59:52.344Z,2.80
